Time;durP1;ratioP1;P1;durP2;ratioP2;P2;SDS_P1;SDS_P2;PMS_P1;PMS_P2;Temp;Humidity;BMP_temperature;BMP_pressure;BME280_temperature;BME280_humidity;BME280_pressure;Samples;Min_cycle;Max_cycle;Signal;HPM_P1;HPM_P2
2023/12/13 00:00:51;;;;;;;32.00;24.00;;;;;;;4.29;98.82;99573.50;108642;283;155582;-55
2023/12/13 00:03:40;;;;;;;36.70;27.10;;;;;;;4.27;98.80;99573.17;108766;283;118157;-55
2023/12/13 00:06:14;;;;;;;34.80;25.70;;;;;;;4.23;98.84;99569.28;108713;283;104892;-59
2023/12/13 00:08:48;;;;;;;36.60;26.30;;;;;;;4.21;98.90;99570.24;108557;283;155287;-59
2023/12/13 00:11:21;;;;;;;37.70;26.70;;;;;;;4.25;98.92;99570.14;108744;283;94593;-54
2023/12/13 00:13:56;;;;;;;36.90;26.10;;;;;;;4.22;98.82;99571.44;108573;283;155752;-54
2023/12/13 00:16:30;;;;;;;30.40;21.50;;;;;;;4.19;98.84;99572.55;108749;283;117022;-58
2023/12/13 00:19:04;;;;;;;34.50;24.70;;;;;;;4.17;98.85;99571.38;108702;283;154939;-58
2023/12/13 00:21:38;;;;;;;35.10;24.90;;;;;;;4.15;98.76;99570.85;108790;283;113548;-54
2023/12/13 00:24:12;;;;;;;34.60;25.80;;;;;;;4.10;98.75;99565.25;108839;283;95732;-54
2023/12/13 00:26:44;;;;;;;;;;;;;;;4.06;98.84;99567.63;108600;277;154246;-54
2023/12/13 00:29:18;;;;;;;31.50;22.90;;;;;;;4.01;98.95;99564.64;108844;283;120508;-54
2023/12/13 00:31:52;;;;;;;30.90;23.10;;;;;;;3.96;98.91;99562.14;108611;283;155031;-55
2023/12/13 00:34:26;;;;;;;33.40;23.40;;;;;;;3.92;98.79;99559.79;108809;283;114845;-55
2023/12/13 00:37:01;;;;;;;30.90;23.60;;;;;;;3.91;98.76;99565.68;108584;285;154780;-59
2023/12/13 00:39:35;;;;;;;32.30;23.80;;;;;;;3.89;98.84;99562.79;108780;283;98084;-59
2023/12/13 00:42:09;;;;;;;32.30;23.00;;;;;;;3.86;98.84;99562.13;108814;283;119289;-54
2023/12/13 00:44:43;;;;;;;32.00;23.50;;;;;;;3.86;98.87;99564.79;108605;283;155628;-54
2023/12/13 00:47:17;;;;;;;30.60;21.80;;;;;;;3.85;98.89;99567.33;108832;283;114780;-58
2023/12/13 00:49:51;;;;;;;28.90;21.30;;;;;;;3.86;99.21;99568.36;108610;283;155738;-58
2023/12/13 00:56:07;;;;;;;31.00;23.30;;;;;;;3.97;99.18;99564.17;108610;279;155649;-58
2023/12/13 00:58:42;;;;;;;32.70;23.50;;;;;;;3.96;99.14;99563.20;108903;283;104864;-58
2023/12/13 01:04:39;;;;;;;35.30;24.40;;;;;;;3.95;99.13;99563.34;108882;281;95825;-59
2023/12/13 01:07:13;;;;;;;33.90;23.70;;;;;;;3.98;99.12;99564.58;108586;283;155751;-54
2023/12/13 01:09:47;;;;;;;35.20;26.00;;;;;;;4.01;99.14;99563.23;108746;283;118470;-54
2023/12/13 01:12:21;;;;;;;58.10;36.20;;;;;;;4.03;99.09;99557.84;108744;283;105812;-59
2023/12/13 01:14:55;;;;;;;45.00;30.20;;;;;;;4.04;99.06;99557.84;108573;283;154639;-59
2023/12/13 01:17:29;;;;;;;41.40;29.70;;;;;;;4.05;99.00;99560.61;108745;283;97062;-55
2023/12/13 01:20:06;;;;;;;40.50;29.20;;;;;;;4.02;99.05;99552.77;108559;283;154504;-54
2023/12/13 01:22:39;;;;;;;36.80;25.70;;;;;;;4.03;99.04;99549.55;108750;283;117954;-54
2023/12/13 01:25:14;;;;;;;35.30;25.00;;;;;;;4.01;98.82;99550.89;108653;283;154680;-54
2023/12/13 01:27:48;;;;;;;37.60;26.00;;;;;;;3.99;99.00;99546.48;108690;283;117530;-59
2023/12/13 01:30:22;;;;;;;34.60;25.40;;;;;;;3.98;99.20;99546.61;108746;283;95383;-59
2023/12/13 01:32:56;;;;;;;34.80;24.80;;;;;;;3.93;99.17;99538.73;108722;283;98654;-58
2023/12/13 01:35:30;;;;;;;32.90;25.30;;;;;;;3.94;99.37;99536.01;108728;283;119094;-58
2023/12/13 01:38:06;;;;;;;35.80;25.10;;;;;;;3.94;99.23;99534.55;108621;283;155123;-54
2023/12/13 01:40:49;;;;;;;34.70;25.20;;;;;;;3.96;99.40;99532.22;108770;283;114117;-54
2023/12/13 01:43:26;;;;;;;41.50;28.00;;;;;;;3.95;99.27;99535.54;108569;283;155775;-54
2023/12/13 01:46:01;;;;;;;32.20;23.40;;;;;;;3.96;99.22;99530.08;108767;283;97854;-55
2023/12/13 01:48:35;;;;;;;34.50;24.10;;;;;;;3.95;99.35;99529.32;108686;283;155659;-55
2023/12/13 01:51:09;;;;;;;33.70;23.50;;;;;;;3.86;99.25;99524.95;108807;283;105721;-59
2023/12/13 01:53:42;;;;;;;;;;;;;;;3.86;99.24;99525.65;108949;283;115263;-59
2023/12/13 01:56:17;;;;;;;33.50;24.10;;;;;;;3.89;99.28;99531.52;108667;283;140483;-54
2023/12/13 01:58:49;;;;;;;;;;;;;;;3.92;99.32;99525.38;108765;283;96552;-54
2023/12/13 02:01:23;;;;;;;32.70;23.00;;;;;;;3.91;99.47;99520.49;108581;283;141140;-55
2023/12/13 02:03:57;;;;;;;34.40;24.40;;;;;;;3.95;99.26;99520.93;108731;283;105519;-55
2023/12/13 02:06:32;;;;;;;33.60;23.90;;;;;;;3.95;99.36;99520.27;108835;282;154966;-54
2023/12/13 02:09:06;;;;;;;33.90;25.30;;;;;;;3.90;99.35;99513.16;108767;283;94651;-54
2023/12/13 02:11:40;;;;;;;36.20;25.50;;;;;;;3.85;99.49;99510.31;108906;283;98529;-59
2023/12/13 02:18:10;;;;;;;33.40;24.60;;;;;;;3.79;99.21;99511.29;108702;281;104837;-59
2023/12/13 02:20:49;;;;;;;37.10;26.60;;;;;;;3.77;99.15;99511.13;108642;283;155017;-59
2023/12/13 02:23:24;;;;;;;32.40;23.60;;;;;;;3.79;99.09;99501.91;108955;283;97675;-58
2023/12/13 02:26:02;;;;;;;36.80;25.90;;;;;;;3.78;99.01;99502.55;108675;283;155849;-58
2023/12/13 02:28:37;;;;;;;35.80;25.00;;;;;;;3.73;98.99;99491.17;108879;283;119898;-54
2023/12/13 02:31:17;;;;;;;35.00;25.60;;;;;;;3.75;99.08;99487.92;108765;283;154693;-58
2023/12/13 02:33:51;;;;;;;33.30;24.30;;;;;;;3.75;99.08;99492.92;108659;283;113463;-58
2023/12/13 02:36:26;;;;;;;37.00;25.60;;;;;;;3.77;99.13;99493.90;108735;283;96913;-59
2023/12/13 02:39:04;;;;;;;33.10;24.00;;;;;;;3.72;99.15;99493.04;108578;283;154579;-59
2023/12/13 02:41:37;;;;;;;35.40;24.80;;;;;;;3.73;98.98;99491.70;108698;284;119294;-59
2023/12/13 02:47:59;;;;;;;32.40;23.70;;;;;;;3.60;98.91;99484.05;108358;281;113609;-55
2023/12/13 02:50:36;;;;;;;32.10;23.60;;;;;;;3.62;99.08;99482.92;108590;282;155418;-58
2023/12/13 02:53:10;;;;;;;33.30;25.20;;;;;;;3.62;98.87;99479.39;108906;283;95459;-58
2023/12/13 02:55:43;;;;;;;;;;;;;;;3.61;98.95;99473.65;108725;283;154613;-54
2023/12/13 02:58:17;;;;;;;33.40;25.30;;;;;;;3.57;98.99;99472.21;108776;283;105066;-54
2023/12/13 03:00:51;;;;;;;34.00;24.90;;;;;;;3.58;98.80;99468.70;108660;283;155635;-54
2023/12/13 03:03:25;;;;;;;33.30;23.90;;;;;;;3.58;98.90;99465.53;108753;283;96608;-54
2023/12/13 03:06:01;;;;;;;31.60;23.10;;;;;;;3.57;98.86;99467.20;108907;283;96551;-58
2023/12/13 03:08:36;;;;;;;31.10;22.60;;;;;;;3.57;98.82;99464.44;108630;283;155689;-58
2023/12/13 03:11:12;;;;;;;32.10;23.00;;;;;;;3.57;98.81;99462.50;108790;283;105514;-59
2023/12/13 03:13:45;;;;;;;31.80;21.80;;;;;;;3.56;98.81;99464.14;108587;283;154727;-59
2023/12/13 03:16:19;;;;;;;33.50;24.30;;;;;;;3.52;98.80;99464.60;108858;283;97429;-55
2023/12/13 03:18:53;;;;;;;32.70;23.70;;;;;;;3.55;98.83;99469.08;108814;283;154311;-55
2023/12/13 03:21:30;;;;;;;31.40;21.80;;;;;;;3.51;98.68;99469.00;108769;283;119723;-59
2023/12/13 03:24:04;;;;;;;31.70;22.90;;;;;;;3.49;98.64;99464.64;108818;283;106151;-59
2023/12/13 03:26:40;;;;;;;32.70;23.30;;;;;;;3.42;98.58;99464.97;108582;283;153843;-55
2023/12/13 03:29:18;;;;;;;32.70;22.70;;;;;;;3.39;98.59;99459.45;108909;283;95167;-57
2023/12/13 03:31:52;;;;;;;33.90;24.20;;;;;;;3.37;98.71;99460.02;108675;283;154401;-57
2023/12/13 03:34:27;;;;;;;31.90;23.80;;;;;;;3.35;98.69;99458.86;108097;283;758728;-54
2023/12/13 03:37:01;;;;;;;31.00;22.90;;;;;;;3.35;98.67;99467.98;108658;283;154613;-54
2023/12/13 03:39:35;;;;;;;32.10;21.60;;;;;;;3.37;98.66;99467.90;108793;283;113825;-58
2023/12/13 03:42:10;;;;;;;32.40;21.70;;;;;;;3.35;98.97;99459.60;108944;283;96390;-58
2023/12/13 03:44:44;;;;;;;31.50;22.70;;;;;;;3.35;98.83;99455.06;108631;283;154496;-58
2023/12/13 03:47:18;;;;;;;30.70;22.80;;;;;;;3.34;98.83;99453.63;108825;283;119577;-58
2023/12/13 03:49:52;;;;;;;31.00;22.30;;;;;;;3.32;98.92;99450.16;108684;282;154580;-58
2023/12/13 03:52:26;;;;;;;31.10;22.40;;;;;;;3.27;98.99;99449.09;108862;282;113486;-58
2023/12/13 03:55:02;;;;;;;33.10;23.20;;;;;;;3.28;99.13;99454.31;108806;282;155460;-55
2023/12/13 03:57:36;;;;;;;33.00;23.10;;;;;;;3.29;99.20;99450.48;108752;282;98414;-54
2023/12/13 04:00:13;;;;;;;30.60;22.50;;;;;;;3.31;99.14;99452.16;108732;282;119320;-59
2023/12/13 04:02:47;;;;;;;32.80;23.10;;;;;;;3.34;99.09;99451.32;108622;282;155485;-59
2023/12/13 04:05:21;;;;;;;32.30;22.30;;;;;;;3.35;99.00;99453.98;108957;282;114146;-55
2023/12/13 04:07:54;;;;;;;32.90;22.50;;;;;;;3.34;99.03;99450.45;108684;282;154577;-55
2023/12/13 04:10:29;;;;;;;31.30;23.10;;;;;;;3.35;99.10;99454.43;108875;282;97370;-59
2023/12/13 04:13:03;;;;;;;34.30;24.80;;;;;;;3.37;99.39;99449.25;108759;282;154710;-59
2023/12/13 04:15:38;;;;;;;36.70;24.50;;;;;;;3.46;99.32;99453.02;108823;282;105307;-60
2023/12/13 04:18:14;;;;;;;35.60;24.70;;;;;;;3.53;99.41;99452.36;108913;282;114046;-59
2023/12/13 04:20:47;;;;;;;35.90;24.90;;;;;;;3.62;99.45;99452.28;108597;282;154672;-55
2023/12/13 04:23:21;;;;;;;38.00;25.30;;;;;;;3.70;99.50;99453.25;108951;282;96849;-54
2023/12/13 04:25:55;;;;;;;38.40;26.10;;;;;;;3.73;99.71;99454.94;108678;282;155601;-58
2023/12/13 04:28:29;;;;;;;33.20;21.70;;;;;;;3.78;99.64;99458.40;108902;282;105211;-60
2023/12/13 04:31:05;;;;;;;32.30;22.30;;;;;;;3.77;99.68;99454.52;108779;282;154884;-54
2023/12/13 04:33:39;;;;;;;36.60;24.80;;;;;;;3.78;99.64;99454.95;108775;282;96431;-54
2023/12/13 04:36:13;;;;;;;32.10;22.60;;;;;;;3.79;99.67;99456.06;108961;282;97660;-54
2023/12/13 04:38:48;;;;;;;31.10;22.40;;;;;;;3.77;99.55;99458.44;108566;276;154360;-54
2023/12/13 04:41:22;;;;;;;29.40;21.70;;;;;;;3.79;99.62;99461.11;108926;282;106117;-59
2023/12/13 04:43:55;;;;;;;;;;;;;;;3.79;99.58;99456.84;108718;282;155405;-59
2023/12/13 04:46:29;;;;;;;49.70;31.10;;;;;;;3.81;99.55;99455.20;108853;282;97289;-55
2023/12/13 04:49:03;;;;;;;41.70;27.50;;;;;;;3.89;99.64;99458.39;108784;282;154893;-55
2023/12/13 04:51:37;;;;;;;39.20;26.10;;;;;;;3.95;99.75;99458.94;108759;282;118338;-54
2023/12/13 04:54:19;;;;;;;38.80;25.70;;;;;;;4.00;99.78;99455.16;108935;282;103962;-55
2023/12/13 05:00:18;;;;;;;76.80;49.20;;;;;;;4.10;99.93;99453.16;108794;281;95787;-59
2023/12/13 05:02:53;;;;;;;55.50;38.10;;;;;;;4.12;99.82;99448.98;108676;281;155810;-55
2023/12/13 05:05:27;;;;;;;50.30;33.50;;;;;;;4.14;99.80;99449.24;108942;282;120887;-55
2023/12/13 05:08:12;;;;;;;50.00;30.90;;;;;;;4.16;99.89;99451.61;108747;282;154567;-59
2023/12/13 05:10:46;;;;;;;50.80;34.30;;;;;;;4.15;99.96;99448.64;108632;283;114383;-59
2023/12/13 05:13:20;;;;;;;48.80;29.70;;;;;;;4.19;100.00;99440.52;108524;285;154706;-54
2023/12/13 05:15:54;;;;;;;48.40;29.20;;;;;;;4.20;100.00;99436.70;108697;285;98182;-54
2023/12/13 05:18:28;;;;;;;57.30;35.20;;;;;;;4.24;100.00;99434.14;108782;285;119959;-58
2023/12/13 05:21:02;;;;;;;58.70;32.90;;;;;;;4.29;99.99;99435.77;108581;284;154803;-58
2023/12/13 05:23:36;;;;;;;63.80;37.10;;;;;;;4.32;99.99;99434.33;108697;284;114357;-55
2023/12/13 05:26:15;;;;;;;55.30;31.90;;;;;;;4.36;100.00;99434.58;108501;285;155529;-55
2023/12/13 05:28:49;;;;;;;85.00;47.10;;;;;;;4.37;100.00;99436.77;108700;284;97314;-55
2023/12/13 05:31:26;;;;;;;73.00;41.80;;;;;;;4.32;100.00;99430.67;108663;281;119488;-58
2023/12/13 05:37:23;;;;;;;72.20;39.00;;;;;;;4.36;100.00;99429.05;108771;281;156279;-54
2023/12/13 05:39:57;;;;;;;65.00;36.60;;;;;;;4.38;100.00;99429.02;108928;282;94949;-58
2023/12/13 05:42:33;;;;;;;94.30;51.90;;;;;;;4.37;100.00;99431.44;108928;282;98045;-58
2023/12/13 05:45:08;;;;;;;87.80;46.50;;;;;;;4.37;100.00;99427.89;108769;282;154824;-54
2023/12/13 05:47:42;;;;;;;66.90;35.90;;;;;;;4.37;100.00;99426.78;108911;282;105393;-54
2023/12/13 05:50:23;;;;;;;58.60;32.70;;;;;;;4.34;100.00;99422.08;108795;282;155939;-54
2023/12/13 05:52:57;;;;;;;62.30;35.40;;;;;;;4.28;100.00;99419.92;108668;283;95699;-54
2023/12/13 05:55:31;;;;;;;70.40;39.30;;;;;;;4.28;100.00;99414.25;108562;284;154758;-58
2023/12/13 05:58:07;;;;;;;70.50;36.90;;;;;;;4.25;100.00;99410.18;108755;283;119199;-58
2023/12/13 06:00:41;;;;;;;70.70;37.50;;;;;;;4.26;100.00;99412.69;108744;283;105807;-59
2023/12/13 06:03:15;;;;;;;70.40;36.90;;;;;;;4.27;100.00;99411.52;108668;283;114199;-59
2023/12/13 06:15:42;;;;;;;57.70;30.30;;;;;;;4.24;100.00;99403.63;108860;280;103772;-54
2023/12/13 06:18:16;;;;;;;88.90;38.90;;;;;;;4.29;100.00;99405.92;108883;281;112822;-54
2023/12/13 06:20:51;;;;;;;65.20;32.40;;;;;;;4.24;100.00;99401.70;108781;281;155738;-58
2023/12/13 06:23:24;;;;;;;62.90;31.30;;;;;;;4.25;100.00;99402.50;108890;282;98379;-58
2023/12/13 06:25:58;;;;;;;68.30;31.60;;;;;;;4.19;100.00;99398.14;108714;282;154263;-57
2023/12/13 06:28:33;;;;;;;70.00;32.90;;;;;;;4.21;100.00;99397.07;108852;281;105408;-58
2023/12/13 06:31:07;;;;;;;62.10;31.50;;;;;;;4.17;100.00;99398.05;108721;281;155594;-59
2023/12/13 06:33:40;;;;;;;;;;;;;;;4.10;100.00;99397.52;108881;281;95241;-59
2023/12/13 06:36:14;;;;;;;54.50;29.00;;;;;;;4.12;100.00;99397.61;108909;281;95504;-59
2023/12/13 06:38:51;;;;;;;61.80;30.20;;;;;;;4.13;100.00;99400.45;108740;281;154518;-59
2023/12/13 06:41:25;;;;;;;56.80;29.40;;;;;;;4.09;100.00;99402.09;108883;282;105736;-54
2023/12/13 06:43:59;;;;;;;62.00;32.10;;;;;;;4.12;100.00;99400.75;108726;282;154912;-54
2023/12/13 06:46:33;;;;;;;63.10;30.20;;;;;;;4.14;100.00;99394.34;108886;281;95815;-54
2023/12/13 06:49:09;;;;;;;56.70;29.30;;;;;;;4.19;100.00;99391.73;108737;281;154612;-54
2023/12/13 06:51:42;;;;;;;55.90;28.70;;;;;;;4.23;100.00;99394.57;108907;281;119403;-54
2023/12/13 06:54:16;;;;;;;57.50;29.00;;;;;;;4.22;100.00;99396.46;108894;281;105167;-55
2023/12/13 06:56:50;;;;;;;60.50;28.30;;;;;;;4.25;100.00;99398.16;108773;282;154969;-54
2023/12/13 06:59:24;;;;;;;57.90;29.80;;;;;;;4.24;100.00;99391.88;108881;281;94356;-54
2023/12/13 07:01:58;;;;;;;56.30;30.20;;;;;;;4.25;100.00;99394.61;108780;282;154577;-57
2023/12/13 07:04:31;;;;;;;;;;;;;;;4.23;100.00;99388.40;108936;281;119866;-54
2023/12/13 07:07:08;;;;;;;55.60;27.10;;;;;;;4.27;100.00;99390.02;108777;281;141594;-54
2023/12/13 07:09:43;;;;;;;59.00;30.50;;;;;;;4.26;100.00;99389.67;108880;281;114553;-60
2023/12/13 07:12:17;;;;;;;72.00;36.80;;;;;;;4.28;100.00;99392.30;108887;282;96841;-59
2023/12/13 07:14:51;;;;;;;77.40;36.80;;;;;;;4.32;100.00;99390.58;108770;282;154740;-57
2023/12/13 07:17:25;;;;;;;61.50;30.80;;;;;;;4.34;100.00;99388.59;108866;281;118354;-57
2023/12/13 07:19:59;;;;;;;57.00;29.10;;;;;;;4.34;100.00;99391.77;108747;281;155410;-53
2023/12/13 07:22:32;;;;;;;60.80;30.40;;;;;;;4.33;100.00;99388.49;108898;282;114681;-53
2023/12/13 07:25:08;;;;;;;58.30;29.00;;;;;;;4.37;100.00;99385.41;108721;281;155021;-59
2023/12/13 07:27:42;;;;;;;60.60;29.30;;;;;;;4.42;100.00;99382.86;108878;281;97936;-59
2023/12/13 07:30:17;;;;;;;57.60;29.00;;;;;;;4.44;100.00;99378.72;108846;281;119657;-59
2023/12/13 07:32:53;;;;;;;60.80;27.80;;;;;;;4.47;100.00;99383.48;108708;282;154532;-59
2023/12/13 07:35:28;;;;;;;55.80;30.60;;;;;;;4.47;100.00;99383.71;108876;282;114393;-59
2023/12/13 07:38:03;;;;;;;51.20;28.20;;;;;;;4.46;100.00;99379.22;108769;281;155150;-59
2023/12/13 07:40:37;;;;;;;55.10;27.40;;;;;;;4.41;100.00;99385.31;108891;282;97884;-58
2023/12/13 07:43:12;;;;;;;58.40;30.30;;;;;;;4.39;100.00;99383.96;108731;282;155094;-58
2023/12/13 07:45:51;;;;;;;58.30;28.40;;;;;;;4.39;100.00;99383.52;108881;281;104049;-59
2023/12/13 07:48:25;;;;;;;57.50;28.60;;;;;;;4.37;100.00;99379.02;108888;281;114526;-59
2023/12/13 07:50:59;;;;;;;54.80;27.20;;;;;;;4.38;100.00;99374.48;108770;282;154794;-54
2023/12/13 07:53:32;;;;;;;;;;;;;;;4.36;100.00;99372.52;108905;281;97926;-54
2023/12/13 07:56:08;;;;;;;57.50;28.80;;;;;;;4.36;100.00;99374.78;108740;282;140734;-54
2023/12/13 07:58:41;;;;;;;61.30;29.30;;;;;;;4.38;100.00;99378.82;108929;281;104303;-54
2023/12/13 08:01:16;;;;;;;53.70;29.90;;;;;;;4.35;100.00;99377.23;108763;281;155085;-58
2023/12/13 08:07:13;;;;;;;58.50;29.50;;;;;;;4.38;100.00;99377.73;108724;281;154702;-59
2023/12/13 08:09:47;;;;;;;57.00;29.60;;;;;;;4.42;100.00;99377.65;108705;283;121004;-59
2023/12/13 08:12:21;;;;;;;57.10;27.90;;;;;;;4.47;100.00;99378.60;108862;283;105241;-54
2023/12/13 08:14:55;;;;;;;56.20;28.60;;;;;;;4.49;100.00;99373.63;108581;283;155168;-54
2023/12/13 08:17:29;;;;;;;61.50;31.00;;;;;;;4.50;100.00;99375.52;108767;283;97082;-54
2023/12/13 08:20:03;;;;;;;60.00;28.90;;;;;;;4.49;100.00;99369.70;108611;283;155052;-54
2023/12/13 08:26:06;;;;;;;57.20;29.10;;;;;;;4.43;100.00;99372.07;108786;280;104642;-54
2023/12/13 08:28:40;;;;;;;56.90;27.90;;;;;;;4.40;100.00;99372.35;108825;282;114286;-58
2023/12/13 08:31:14;;;;;;;61.10;29.90;;;;;;;4.41;100.00;99368.74;108767;282;155023;-58
2023/12/13 08:33:48;;;;;;;62.20;31.10;;;;;;;4.42;100.00;99370.23;108903;282;96961;-59
2023/12/13 08:36:23;;;;;;;62.20;29.30;;;;;;;4.42;100.00;99362.52;108847;282;120298;-59
2023/12/13 08:39:02;;;;;;;64.80;30.80;;;;;;;4.37;100.00;99357.56;108780;281;155030;-58
2023/12/13 08:44:43;;;;;;;64.40;29.70;;;;;;;4.49;100.00;99361.25;108508;281;94422;-59
2023/12/13 08:47:19;;;;;;;64.60;33.10;;;;;;;4.51;100.00;99364.87;108980;282;97702;-58
2023/12/13 08:49:54;;;;;;;64.60;32.40;;;;;;;4.53;100.00;99365.20;108796;282;155467;-58
2023/12/13 08:52:29;;;;;;;67.60;32.00;;;;;;;4.57;100.00;99364.67;108872;282;105195;-58
2023/12/13 08:55:03;;;;;;;67.20;33.30;;;;;;;4.63;100.00;99363.13;108904;282;114942;-58
2023/12/13 08:57:37;;;;;;;62.20;33.10;;;;;;;4.67;100.00;99362.60;108721;282;96673;-58
2023/12/13 09:00:14;;;;;;;69.60;33.80;;;;;;;4.73;100.00;99364.04;108941;282;98440;-58
2023/12/13 09:02:48;;;;;;;65.50;32.40;;;;;;;4.75;100.00;99366.91;108741;282;155542;-58
2023/12/13 09:05:22;;;;;;;70.10;33.70;;;;;;;4.70;100.00;99371.54;108958;282;105624;-57
2023/12/13 09:07:57;;;;;;;66.30;33.50;;;;;;;4.71;100.00;99374.06;108800;282;156252;-54
2023/12/13 09:10:34;;;;;;;65.50;31.80;;;;;;;4.71;100.00;99370.03;108958;282;95744;-54
2023/12/13 09:13:08;;;;;;;71.80;34.80;;;;;;;4.68;100.00;99371.95;108938;282;97853;-54
2023/12/13 09:19:32;;;;;;;69.40;34.20;;;;;;;4.62;100.00;99358.43;108756;280;155484;-55
2023/12/13 09:22:06;;;;;;;69.10;34.80;;;;;;;4.57;100.00;99353.17;108861;282;113404;-54
2023/12/13 09:24:40;;;;;;;68.90;32.70;;;;;;;4.61;100.00;99350.48;108833;282;95327;-54
2023/12/13 09:27:14;;;;;;;65.20;33.70;;;;;;;4.70;100.00;99351.38;108578;282;154739;-55
2023/12/13 09:29:48;;;;;;;71.80;36.00;;;;;;;4.74;100.00;99347.55;108864;283;120439;-55
2023/12/13 09:32:22;;;;;;;70.30;34.70;;;;;;;4.70;100.00;99347.88;108674;283;155029;-59
2023/12/13 09:34:56;;;;;;;70.30;33.50;;;;;;;4.70;100.00;99345.00;108907;282;113202;-59
2023/12/13 09:37:29;;;;;;;72.20;35.70;;;;;;;4.70;100.00;99345.46;108784;282;155678;-54
2023/12/13 09:40:04;;;;;;;70.50;34.80;;;;;;;4.73;100.00;99339.83;108746;283;98373;-54
2023/12/13 09:42:44;;;;;;;63.10;34.90;;;;;;;4.68;100.00;99335.44;108813;283;121231;-58
2023/12/13 09:48:41;;;;;;;69.80;35.90;;;;;;;4.66;100.00;99333.11;108796;280;113069;-59
2023/12/13 09:51:16;;;;;;;71.40;35.90;;;;;;;4.72;100.00;99334.81;108562;283;155212;-59
2023/12/13 09:53:51;;;;;;;67.90;34.70;;;;;;;4.79;100.00;99335.27;108878;283;98029;-59
2023/12/13 09:56:25;;;;;;;71.90;37.00;;;;;;;4.78;100.00;99337.61;108651;283;154706;-59
2023/12/13 09:58:59;;;;;;;65.40;35.70;;;;;;;4.78;100.00;99331.09;108819;283;104309;-59
2023/12/13 10:01:33;;;;;;;66.30;38.20;;;;;;;4.79;100.00;99332.33;108643;283;155819;-59
2023/12/13 10:04:10;;;;;;;68.10;35.30;;;;;;;4.84;100.00;99325.70;108791;283;95904;-55
2023/12/13 10:06:45;;;;;;;69.80;37.60;;;;;;;4.79;100.00;99325.95;108866;283;97794;-55
2023/12/13 10:09:19;;;;;;;66.50;35.90;;;;;;;4.80;100.00;99326.94;108604;283;155114;-59
2023/12/13 10:11:53;;;;;;;71.80;38.90;;;;;;;4.84;100.00;99325.33;108899;283;104888;-59
2023/12/13 10:14:29;;;;;;;70.50;38.80;;;;;;;4.89;100.00;99321.73;108671;283;155070;-58
2023/12/13 10:17:03;;;;;;;64.10;36.50;;;;;;;4.88;100.00;99321.52;108772;283;95364;-58
2023/12/13 10:19:37;;;;;;;65.80;36.90;;;;;;;4.78;100.00;99322.63;108661;283;155215;-54
2023/12/13 10:22:16;;;;;;;71.90;39.80;;;;;;;4.70;100.00;99319.67;108765;283;120307;-59
2023/12/13 10:24:50;;;;;;;67.90;37.60;;;;;;;4.74;100.00;99323.88;108868;282;106754;-59
2023/12/13 10:27:25;;;;;;;70.00;38.60;;;;;;;4.78;100.00;99319.45;108790;282;155781;-55
2023/12/13 10:29:59;;;;;;;61.60;34.50;;;;;;;4.86;100.00;99317.27;108897;283;96988;-54
2023/12/13 10:35:59;;;;;;;70.00;39.50;;;;;;;4.72;100.00;99325.09;108695;281;119896;-58
2023/12/13 10:38:34;;;;;;;70.30;40.80;;;;;;;4.72;100.00;99324.05;108702;282;154976;-58
2023/12/13 10:41:11;;;;;;;71.00;43.60;;;;;;;4.72;100.00;99320.80;108848;281;113767;-57
2023/12/13 10:43:46;;;;;;;79.30;45.10;;;;;;;4.76;100.00;99324.52;108728;281;155871;-55
2023/12/13 10:50:02;;;;;;;64.70;38.50;;;;;;;4.83;100.00;99323.87;108517;279;155296;-59
2023/12/13 10:52:38;;;;;;;71.80;41.20;;;;;;;4.78;100.00;99323.56;108972;281;106270;-59
2023/12/13 11:01:38;;;;;;;99.30;51.00;;;;;;;4.73;100.00;99309.25;108758;282;155096;-54
2023/12/13 11:04:16;;;;;;;86.50;47.60;;;;;;;4.77;100.00;99304.55;108717;283;121441;-54
2023/12/13 11:06:51;;;;;;;80.60;46.80;;;;;;;4.85;100.00;99298.55;108723;283;104079;-55
2023/12/13 11:09:28;;;;;;;101.30;53.10;;;;;;;4.87;100.00;99297.52;108585;283;156433;-55
2023/12/13 11:12:18;;;;;;;116.20;60.60;;;;;;;4.96;100.00;99295.69;108670;283;97701;-54
2023/12/13 11:14:55;;;;;;;92.60;48.80;;;;;;;4.99;100.00;99294.88;108513;283;155096;-55
2023/12/13 11:17:29;;;;;;;83.80;48.20;;;;;;;5.06;99.83;99297.39;108690;283;120696;-55
2023/12/13 11:20:09;;;;;;;97.30;53.50;;;;;;;5.06;99.80;99293.66;108545;284;155170;-54
2023/12/13 11:22:48;;;;;;;84.70;47.80;;;;;;;5.05;99.75;99293.45;108667;285;115012;-55
2023/12/13 11:25:34;;;;;;;94.10;51.70;;;;;;;5.04;99.78;99290.31;108563;285;156098;-54
2023/12/13 11:28:09;;;;;;;99.20;53.60;;;;;;;5.02;99.56;99284.83;108659;285;97636;-59
2023/12/13 11:30:46;;;;;;;105.60;56.80;;;;;;;4.98;99.50;99282.06;108717;285;121147;-59
2023/12/13 11:36:43;;;;;;;87.80;47.80;;;;;;;4.90;99.22;99275.38;108739;280;112951;-58
2023/12/13 11:39:17;;;;;;;124.50;62.10;;;;;;;4.96;99.22;99268.22;108564;282;154319;-58
2023/12/13 11:41:52;;;;;;;86.40;48.90;;;;;;;5.01;99.21;99266.75;108781;283;95754;-59
2023/12/13 11:44:31;;;;;;;83.10;48.10;;;;;;;5.03;99.06;99262.42;108590;283;154923;-58
2023/12/13 11:47:07;;;;;;;75.30;44.40;;;;;;;4.98;98.98;99257.51;108704;283;105266;-58
2023/12/13 11:49:43;;;;;;;69.00;44.30;;;;;;;4.96;98.84;99255.55;108592;284;156184;-58
2023/12/13 11:52:17;;;;;;;70.80;42.50;;;;;;;4.95;98.99;99261.76;108722;283;96459;-58
2023/12/13 11:54:51;;;;;;;76.00;44.70;;;;;;;4.90;99.10;99264.68;108749;283;97051;-58
2023/12/13 11:57:29;;;;;;;74.20;44.10;;;;;;;4.91;99.00;99262.28;108545;283;156293;-58
2023/12/13 12:00:07;;;;;;;90.60;52.50;;;;;;;4.92;98.75;99256.39;108703;283;105702;-59
2023/12/13 12:02:42;;;;;;;69.20;41.10;;;;;;;4.97;98.54;99258.85;108593;284;154971;-61
2023/12/13 12:05:17;;;;;;;73.70;43.90;;;;;;;4.93;98.22;99254.71;108759;283;96606;-57
2023/12/13 12:08:02;;;;;;;90.10;49.70;;;;;;;4.84;98.02;99248.61;108607;283;155938;-57
2023/12/13 12:10:34;;;;;;;;;;;;;;;4.81;98.09;99243.11;108702;283;120806;-58
2023/12/13 12:13:08;;;;;;;81.60;46.20;;;;;;;4.73;98.26;99242.28;108716;283;105399;-58
2023/12/13 12:15:44;;;;;;;67.80;40.90;;;;;;;4.69;98.17;99239.91;108606;283;114102;-58
2023/12/13 12:22:04;;;;;;;91.50;47.50;;;;;;;4.64;97.94;99233.38;108712;283;95605;-54
2023/12/13 12:24:40;;;;;;;68.70;39.40;;;;;;;4.66;97.76;99228.84;108712;283;120111;-58
2023/12/13 12:27:15;;;;;;;77.10;42.90;;;;;;;4.64;97.64;99230.86;108561;284;154733;-58
2023/12/13 12:29:48;;;;;;;72.70;41.10;;;;;;;4.60;97.66;99230.99;108691;283;113034;-53
2023/12/13 12:32:23;;;;;;;62.90;36.60;;;;;;;4.55;97.64;99226.26;108571;284;154773;-54
2023/12/13 12:34:57;;;;;;;70.40;40.00;;;;;;;4.49;97.66;99228.17;108701;283;97709;-57
2023/12/13 12:37:30;;;;;;;70.10;41.80;;;;;;;4.44;97.82;99230.42;108574;284;154708;-57
2023/12/13 12:40:06;;;;;;;69.90;42.30;;;;;;;4.45;97.82;99229.21;108737;283;104347;-58
2023/12/13 12:42:41;;;;;;;65.40;37.90;;;;;;;4.43;97.78;99232.09;108715;283;113899;-58
2023/12/13 12:45:16;;;;;;;68.80;39.70;;;;;;;4.43;97.67;99232.84;108558;284;155923;-54
2023/12/13 12:47:48;;;;;;;;;;;;;;;4.42;97.63;99238.67;108684;283;97944;-54
2023/12/13 12:50:22;;;;;;;65.00;35.50;;;;;;;4.38;97.49;99242.36;108564;284;140518;-53
2023/12/13 12:52:56;;;;;;;56.30;34.00;;;;;;;4.33;97.25;99238.70;108724;283;105693;-56
2023/12/13 12:55:30;;;;;;;58.40;32.80;;;;;;;4.28;97.27;99237.09;108554;283;155079;-57
2023/12/13 12:58:04;;;;;;;58.00;33.50;;;;;;;4.30;97.18;99238.18;108756;283;95019;-54
2023/12/13 13:00:38;;;;;;;54.80;32.00;;;;;;;4.23;97.27;99244.14;108962;283;97833;-54
2023/12/13 13:03:12;;;;;;;52.80;32.00;;;;;;;4.22;97.27;99247.25;108722;283;155682;-58